Time;durP1;ratioP1;P1;durP2;ratioP2;P2;SDS_P1;SDS_P2;PMS_P1;PMS_P2;Temp;Humidity;BMP_temperature;BMP_pressure;BME280_temperature;BME280_humidity;BME280_pressure;Samples;Min_cycle;Max_cycle;Signal;HPM_P1;HPM_P2
2022/06/20 00:01:38;;;;;;;0.50;0.40;;;15.00;99.90;;;;;;5059810;28;20480;-85
2022/06/20 00:04:05;;;;;;;0.50;0.40;;;15.00;99.90;;;;;;5059251;28;20943;-84
2022/06/20 00:06:32;;;;;;;0.60;0.57;;;15.00;99.90;;;;;;5058665;28;20556;-83
2022/06/20 00:09:00;;;;;;;0.50;0.47;;;15.00;99.90;;;;;;5058453;28;20768;-84
2022/06/20 00:11:32;;;;;;;0.50;0.40;;;14.90;99.90;;;;;;5058198;28;20889;-82
2022/06/20 00:13:59;;;;;;;0.50;0.40;;;14.80;99.90;;;;;;5059278;28;20449;-83
2022/06/20 00:16:28;;;;;;;0.50;0.40;;;14.80;99.90;;;;;;5058009;28;20562;-85
2022/06/20 00:18:54;;;;;;;0.50;0.40;;;14.70;99.90;;;;;;5059753;28;20444;-84
2022/06/20 00:21:23;;;;;;;0.50;0.40;;;14.70;99.90;;;;;;5059238;28;20874;-84
2022/06/20 00:23:51;;;;;;;0.50;0.40;;;14.70;99.90;;;;;;5058172;28;20436;-85
2022/06/20 00:26:19;;;;;;;0.50;0.40;;;14.70;99.90;;;;;;5058127;28;20830;-84
2022/06/20 00:28:47;;;;;;;0.50;0.40;;;14.70;99.90;;;;;;5058517;28;20221;-84
2022/06/20 00:31:14;;;;;;;0.50;0.40;;;14.70;99.90;;;;;;5057160;28;20460;-85
2022/06/20 00:33:42;;;;;;;0.50;0.40;;;14.70;99.90;;;;;;5058440;28;20530;-84
2022/06/20 00:36:09;;;;;;;0.50;0.40;;;14.70;99.90;;;;;;5057603;28;20962;-84
2022/06/20 00:38:37;;;;;;;0.50;0.40;;;14.60;99.90;;;;;;5058699;28;20472;-84
2022/06/20 00:41:08;;;;;;;0.50;0.40;;;14.60;99.90;;;;;;5057906;28;20515;-84
2022/06/20 00:43:39;;;;;;;0.50;0.50;;;14.60;99.90;;;;;;5058665;28;20445;-83
2022/06/20 00:46:09;;;;;;;0.50;0.40;;;14.60;99.90;;;;;;5057491;28;20508;-83
2022/06/20 00:48:41;;;;;;;0.50;0.40;;;14.70;99.90;;;;;;5058150;28;20520;-84
2022/06/20 00:51:19;;;;;;;0.50;0.40;;;14.80;99.90;;;;;;5057617;28;20461;-83
2022/06/20 00:53:51;;;;;;;0.50;0.40;;;14.80;99.90;;;;;;5058176;28;20468;-83
2022/06/20 00:56:22;;;;;;;0.50;0.40;;;14.90;99.90;;;;;;5058730;28;20461;-84
2022/06/20 00:58:54;;;;;;;0.50;0.40;;;14.90;99.90;;;;;;5066140;28;20537;-85
2022/06/20 01:01:28;;;;;;;0.50;0.40;;;14.90;99.90;;;;;;5077337;28;20512;-82
2022/06/20 01:03:59;;;;;;;0.50;0.37;;;14.90;99.90;;;;;;5077877;28;20420;-83
2022/06/20 01:06:33;;;;;;;0.50;0.40;;;14.90;99.90;;;;;;5077731;28;20510;-84
2022/06/20 01:09:06;;;;;;;0.50;0.40;;;15.00;99.90;;;;;;5077565;28;21042;-84
2022/06/20 01:11:43;;;;;;;0.50;0.40;;;15.00;99.90;;;;;;5077108;28;21195;-84
2022/06/20 01:14:22;;;;;;;0.50;0.40;;;15.00;99.90;;;;;;5077326;28;20488;-84
2022/06/20 01:16:52;;;;;;;0.50;0.40;;;15.00;99.90;;;;;;5077626;28;20786;-84
2022/06/20 01:19:42;;;;;;;1.17;0.90;;;15.00;99.90;;;;;;5076118;28;20511;-84
2022/06/20 01:22:27;;;;;;;0.50;0.40;;;15.00;99.90;;;;;;5063588;28;20525;-84
2022/06/20 01:25:02;;;;;;;0.50;0.40;;;15.10;99.90;;;;;;5076709;28;20503;-84
2022/06/20 01:27:36;;;;;;;0.50;0.40;;;15.00;99.90;;;;;;5078916;28;20471;-83
2022/06/20 01:30:04;;;;;;;0.50;0.40;;;14.90;99.90;;;;;;5080829;28;20508;-82
2022/06/20 01:32:32;;;;;;;0.50;0.40;;;14.70;99.90;;;;;;5081308;28;20878;-85
2022/06/20 01:35:02;;;;;;;0.50;0.40;;;14.60;99.90;;;;;;5080320;28;20515;-83
2022/06/20 01:37:29;;;;;;;0.50;0.30;;;14.60;99.90;;;;;;5081461;28;20463;-83
2022/06/20 01:40:01;;;;;;;1.00;0.77;;;14.50;99.90;;;;;;5081269;28;20464;-83
2022/06/20 01:42:28;;;;;;;0.50;0.40;;;14.40;99.90;;;;;;5080819;28;20475;-83
2022/06/20 01:45:01;;;;;;;0.50;0.40;;;14.40;99.90;;;;;;5080013;28;20478;-83
2022/06/20 01:47:28;;;;;;;0.50;0.40;;;14.40;99.90;;;;;;5077838;28;20296;-83
2022/06/20 01:50:00;;;;;;;0.50;0.40;;;14.30;99.90;;;;;;5078419;28;20213;-83
2022/06/20 01:52:31;;;;;;;0.50;0.50;;;14.30;99.90;;;;;;5077907;28;20416;-83
2022/06/20 01:55:06;;;;;;;0.50;0.40;;;14.20;99.90;;;;;;5079311;28;20428;-84
2022/06/20 01:57:35;;;;;;;0.50;0.40;;;14.20;99.90;;;;;;5079520;28;20424;-85
2022/06/20 02:00:07;;;;;;;0.50;0.40;;;14.10;99.90;;;;;;5081064;28;20538;-85
2022/06/20 02:02:38;;;;;;;0.50;0.40;;;14.00;99.90;;;;;;5080998;28;20460;-85
2022/06/20 02:05:07;;;;;;;0.50;0.40;;;14.00;99.90;;;;;;5080355;28;20687;-85
2022/06/20 02:07:34;;;;;;;0.50;0.40;;;13.90;99.90;;;;;;5079885;28;20586;-84
2022/06/20 02:10:01;;;;;;;0.50;0.40;;;13.90;99.90;;;;;;5079933;28;20224;-85
2022/06/20 02:12:32;;;;;;;0.50;0.38;;;13.90;99.90;;;;;;5080886;28;20192;-85
2022/06/20 02:15:00;;;;;;;0.50;0.40;;;13.90;99.90;;;;;;5080268;28;20580;-85
2022/06/20 02:17:33;;;;;;;0.50;0.40;;;13.90;99.90;;;;;;5080094;28;20499;-85
2022/06/20 02:20:03;;;;;;;0.50;0.40;;;13.80;99.90;;;;;;5080351;28;20217;-85
2022/06/20 02:22:34;;;;;;;0.50;0.40;;;13.80;99.90;;;;;;5080303;28;20451;-85
2022/06/20 02:25:09;;;;;;;0.50;0.40;;;13.70;99.90;;;;;;5080506;28;20189;-85
2022/06/20 02:27:40;;;;;;;0.50;0.50;;;13.60;99.90;;;;;;5080962;28;20601;-84
2022/06/20 02:30:09;;;;;;;0.50;0.40;;;13.60;99.90;;;;;;5080134;28;20300;-84
2022/06/20 02:32:42;;;;;;;0.50;0.40;;;13.60;99.90;;;;;;5079593;28;20213;-84
2022/06/20 02:35:13;;;;;;;0.50;0.40;;;13.60;99.90;;;;;;5079236;28;20197;-85
2022/06/20 02:37:40;;;;;;;0.50;0.40;;;13.60;99.90;;;;;;5079078;28;20585;-84
2022/06/20 02:40:11;;;;;;;0.50;0.40;;;13.60;99.90;;;;;;5078600;28;20491;-84
2022/06/20 02:42:44;;;;;;;0.50;0.40;;;13.50;99.90;;;;;;5079091;28;20655;-82
2022/06/20 02:45:12;;;;;;;0.50;0.40;;;13.60;99.90;;;;;;5079930;28;20436;-84
2022/06/20 02:47:42;;;;;;;0.50;0.40;;;13.60;99.90;;;;;;5079162;28;20301;-84
2022/06/20 02:50:13;;;;;;;0.50;0.50;;;13.60;99.90;;;;;;5080098;28;20317;-84
2022/06/20 02:52:46;;;;;;;0.50;0.40;;;13.60;99.90;;;;;;5079441;28;20820;-84
2022/06/20 02:55:16;;;;;;;0.50;0.40;;;13.60;99.90;;;;;;5079732;28;20196;-84
2022/06/20 02:57:45;;;;;;;0.50;0.30;;;13.50;99.90;;;;;;5078633;28;20177;-84
2022/06/20 03:00:16;;;;;;;0.65;0.63;;;13.50;99.90;;;;;;5079474;28;20217;-81
2022/06/20 03:02:51;;;;;;;0.50;0.40;;;13.30;99.90;;;;;;5078829;28;20273;-86
2022/06/20 03:05:19;;;;;;;0.50;0.45;;;13.30;99.90;;;;;;5079377;28;20266;-85
2022/06/20 03:07:49;;;;;;;0.50;0.40;;;13.30;99.90;;;;;;5078261;28;20217;-85
2022/06/20 03:10:21;;;;;;;1.15;1.05;;;13.30;99.90;;;;;;5077776;28;20980;-84
2022/06/20 03:12:48;;;;;;;0.50;0.40;;;13.20;99.90;;;;;;5078737;28;20194;-81
2022/06/20 03:15:16;;;;;;;0.50;0.40;;;13.20;99.90;;;;;;5075510;28;20198;-81
2022/06/20 03:17:47;;;;;;;0.50;0.40;;;13.10;99.90;;;;;;5074709;28;20280;-81
2022/06/20 03:20:16;;;;;;;0.50;0.40;;;13.10;99.90;;;;;;5075799;28;20301;-81
2022/06/20 03:22:50;;;;;;;0.50;0.40;;;13.10;99.90;;;;;;5075916;28;20630;-83
2022/06/20 03:25:19;;;;;;;0.50;0.50;;;13.10;99.90;;;;;;5078670;28;20715;-82
2022/06/20 03:27:46;;;;;;;0.95;0.85;;;13.00;99.90;;;;;;5073293;28;20467;-82
2022/06/20 03:30:28;;;;;;;0.50;0.40;;;12.90;99.90;;;;;;5074390;28;20642;-81
2022/06/20 03:32:58;;;;;;;0.50;0.40;;;12.90;99.90;;;;;;5075882;28;20679;-82
2022/06/20 03:35:30;;;;;;;0.50;0.40;;;12.90;99.90;;;;;;5079725;28;20198;-83
2022/06/20 03:37:57;;;;;;;0.50;0.40;;;12.80;99.90;;;;;;5078318;28;20191;-81
2022/06/20 03:40:24;;;;;;;0.50;0.40;;;12.70;99.90;;;;;;5075014;28;20301;-82
2022/06/20 03:42:52;;;;;;;0.50;0.40;;;12.80;99.90;;;;;;5073718;28;20193;-80
2022/06/20 03:45:20;;;;;;;0.50;0.40;;;12.80;99.90;;;;;;5072418;28;20285;-84
2022/06/20 03:47:52;;;;;;;0.50;0.40;;;12.90;99.90;;;;;;5061939;28;20305;-80
2022/06/20 03:50:25;;;;;;;0.50;0.40;;;12.80;99.90;;;;;;5072801;28;20221;-80
2022/06/20 03:52:58;;;;;;;0.50;0.40;;;12.90;99.90;;;;;;5075115;28;20284;-82
2022/06/20 03:55:30;;;;;;;0.50;0.40;;;13.00;99.90;;;;;;5074031;28;20216;-82
2022/06/20 03:58:03;;;;;;;0.50;0.40;;;13.00;99.90;;;;;;5074722;28;20624;-83
2022/06/20 04:00:35;;;;;;;0.50;0.40;;;13.00;99.90;;;;;;5073877;28;20301;-80
2022/06/20 04:03:07;;;;;;;0.50;0.40;;;13.00;99.90;;;;;;5074004;28;20194;-82
2022/06/20 04:05:39;;;;;;;0.50;0.30;;;13.10;99.90;;;;;;5074126;28;20964;-81
2022/06/20 04:08:10;;;;;;;0.50;0.40;;;13.10;99.90;;;;;;5073092;28;20567;-82
2022/06/20 04:10:58;;;;;;;0.50;0.40;;;13.10;99.90;;;;;;5075018;28;20660;-83
2022/06/20 04:13:31;;;;;;;0.50;0.38;;;13.10;99.90;;;;;;5075282;28;20185;-81
2022/06/20 04:16:02;;;;;;;0.50;0.40;;;13.10;99.90;;;;;;5076889;28;20201;-82
2022/06/20 04:18:33;;;;;;;0.50;0.40;;;13.10;99.90;;;;;;5078023;28;20262;-82
2022/06/20 04:21:09;;;;;;;0.50;0.40;;;13.30;99.90;;;;;;5079646;28;20452;-82
2022/06/20 04:23:42;;;;;;;0.50;0.40;;;13.30;99.90;;;;;;5077391;28;20182;-84
2022/06/20 04:26:14;;;;;;;0.50;0.40;;;13.30;99.90;;;;;;5077657;28;20265;-81
2022/06/20 04:28:48;;;;;;;0.50;0.30;;;13.30;99.90;;;;;;5076977;28;20818;-82
2022/06/20 04:31:20;;;;;;;0.50;0.40;;;13.30;99.90;;;;;;5075038;28;20734;-82
2022/06/20 04:33:54;;;;;;;0.50;0.40;;;13.30;99.90;;;;;;5074843;28;20270;-82
2022/06/20 04:36:33;;;;;;;0.50;0.40;;;13.20;99.90;;;;;;5079616;28;20288;-84
2022/06/20 04:39:05;;;;;;;0.50;0.40;;;13.20;99.90;;;;;;5076281;28;20269;-81
2022/06/20 04:41:38;;;;;;;0.50;0.50;;;13.20;99.90;;;;;;5074755;28;20241;-82
2022/06/20 04:44:11;;;;;;;0.50;0.43;;;13.30;99.90;;;;;;5069894;28;20222;-81
2022/06/20 04:46:43;;;;;;;0.50;0.40;;;13.30;99.90;;;;;;5065447;28;20206;-82
2022/06/20 04:49:13;;;;;;;0.50;0.40;;;13.40;99.90;;;;;;5065144;28;20277;-83
2022/06/20 04:51:45;;;;;;;0.50;0.40;;;13.40;99.90;;;;;;5073080;28;20208;-83
2022/06/20 04:54:16;;;;;;;0.50;0.40;;;13.40;99.90;;;;;;5073895;28;20255;-82
2022/06/20 04:56:44;;;;;;;0.50;0.40;;;13.40;99.90;;;;;;5074424;28;20190;-84
2022/06/20 04:59:14;;;;;;;0.50;0.40;;;13.40;99.90;;;;;;5073574;28;20689;-83
2022/06/20 05:01:41;;;;;;;0.50;0.40;;;13.40;99.90;;;;;;5074960;28;20194;-83
2022/06/20 05:04:25;;;;;;;0.50;0.40;;;13.40;99.90;;;;;;5076195;28;20625;-84
2022/06/20 05:06:56;;;;;;;0.50;0.40;;;13.40;99.90;;;;;;5075559;28;20198;-81
2022/06/20 05:09:29;;;;;;;0.50;0.40;;;13.40;99.90;;;;;;5074238;28;20312;-84
2022/06/20 05:12:04;;;;;;;0.50;0.40;;;13.30;99.90;;;;;;5074631;28;20444;-81
2022/06/20 05:14:35;;;;;;;0.50;0.40;;;13.30;99.90;;;;;;5075933;28;20447;-83
2022/06/20 05:17:04;;;;;;;0.50;0.40;;;13.30;99.90;;;;;;5075546;28;20511;-82
2022/06/20 05:19:38;;;;;;;0.50;0.40;;;13.30;99.90;;;;;;5074874;28;20492;-82
2022/06/20 05:22:13;;;;;;;0.50;0.40;;;13.30;99.90;;;;;;5074065;28;20200;-83
2022/06/20 05:24:43;;;;;;;0.50;0.40;;;13.30;99.90;;;;;;5075433;28;20269;-84
2022/06/20 05:27:15;;;;;;;0.50;0.40;;;13.40;99.90;;;;;;5079875;28;20230;-82
2022/06/20 05:29:44;;;;;;;0.50;0.40;;;13.40;99.90;;;;;;5076664;28;20252;-80
2022/06/20 05:32:16;;;;;;;0.50;0.40;;;13.40;99.90;;;;;;5076762;28;20447;-83
2022/06/20 05:34:47;;;;;;;0.50;0.40;;;13.30;99.90;;;;;;5076029;28;20623;-83
2022/06/20 05:37:24;;;;;;;0.50;0.40;;;13.30;99.90;;;;;;5075851;28;20220;-81
2022/06/20 05:39:55;;;;;;;0.50;0.40;;;13.30;99.90;;;;;;5077433;28;20308;-82
2022/06/20 05:42:22;;;;;;;0.50;0.40;;;13.30;99.90;;;;;;5078428;28;20515;-82
2022/06/20 05:44:49;;;;;;;0.50;0.40;;;13.30;99.90;;;;;;5070941;28;21021;-82
2022/06/20 05:47:23;;;;;;;0.50;0.40;;;13.30;99.90;;;;;;5064333;28;20275;-83
2022/06/20 05:49:53;;;;;;;0.50;0.40;;;13.30;99.90;;;;;;5074689;28;20633;-85
2022/06/20 05:52:24;;;;;;;0.50;0.30;;;13.30;99.90;;;;;;5074737;28;20186;-84
2022/06/20 05:54:58;;;;;;;0.50;0.40;;;13.40;99.90;;;;;;5074284;28;20668;-83
2022/06/20 05:57:28;;;;;;;0.50;0.50;;;13.40;99.90;;;;;;5073489;28;20257;-82
2022/06/20 05:59:59;;;;;;;5.40;2.50;;;13.60;99.90;;;;;;5074164;28;20750;-84
2022/06/20 06:02:31;;;;;;;0.50;0.40;;;13.70;99.90;;;;;;5071950;28;21030;-84
2022/06/20 06:05:05;;;;;;;0.50;0.40;;;13.60;99.90;;;;;;5073193;28;20280;-84
2022/06/20 06:07:39;;;;;;;0.50;0.40;;;13.60;99.90;;;;;;5073117;28;20555;-84
2022/06/20 06:10:22;;;;;;;0.50;0.40;;;13.60;99.90;;;;;;5073569;28;20221;-83
2022/06/20 06:12:52;;;;;;;0.50;0.40;;;13.80;99.90;;;;;;5074023;28;20221;-87
2022/06/20 06:15:38;;;;;;;0.50;0.40;;;13.90;99.90;;;;;;5079122;28;20757;-83
2022/06/20 06:18:11;;;;;;;0.50;0.40;;;14.10;99.90;;;;;;5077304;28;20503;-84
2022/06/20 06:20:38;;;;;;;0.50;0.40;;;14.20;99.90;;;;;;5115188;22;20945;-78
2022/06/20 06:23:09;;;;;;;0.50;0.40;;;14.40;99.90;;;;;;5053887;28;20549;-77
2022/06/20 06:25:38;;;;;;;0.50;0.40;;;14.60;99.90;;;;;;5054335;28;20841;-79
2022/06/20 06:28:08;;;;;;;0.50;0.40;;;14.80;99.90;;;;;;5053608;28;20473;-79
2022/06/20 06:30:40;;;;;;;0.50;0.50;;;14.90;99.90;;;;;;5054327;28;20874;-79
2022/06/20 06:33:20;;;;;;;0.50;0.40;;;14.80;99.90;;;;;;5054156;28;20448;-75
2022/06/20 06:35:50;;;;;;;0.50;0.37;;;14.90;99.90;;;;;;5053237;28;20455;-78
2022/06/20 06:38:26;;;;;;;0.50;0.40;;;15.00;99.90;;;;;;5054309;28;20524;-78
2022/06/20 06:40:54;;;;;;;0.50;0.40;;;15.00;99.90;;;;;;5053414;28;20461;-78
2022/06/20 06:43:24;;;;;;;0.50;0.40;;;15.20;99.90;;;;;;5053357;28;20952;-78
2022/06/20 06:45:54;;;;;;;0.53;0.50;;;15.50;99.90;;;;;;5054412;28;20431;-79
2022/06/20 06:48:25;;;;;;;0.50;0.40;;;15.90;99.90;;;;;;5053177;28;20558;-78
2022/06/20 06:50:57;;;;;;;0.50;0.30;;;16.20;99.90;;;;;;5053673;28;20461;-79
2022/06/20 06:53:32;;;;;;;0.50;0.40;;;16.60;99.90;;;;;;5056792;28;20448;-79
2022/06/20 06:56:05;;;;;;;0.50;0.40;;;16.80;99.90;;;;;;5056930;28;20471;-78
2022/06/20 06:58:37;;;;;;;0.50;0.40;;;16.60;99.90;;;;;;5054700;28;21017;-79
2022/06/20 07:01:09;;;;;;;0.50;0.30;;;16.40;99.90;;;;;;5054648;28;20455;-77
2022/06/20 07:03:41;;;;;;;0.50;0.40;;;16.30;99.90;;;;;;5054842;28;20431;-77
2022/06/20 07:06:14;;;;;;;0.50;0.40;;;16.30;99.90;;;;;;5053852;28;20494;-77
2022/06/20 07:08:49;;;;;;;0.50;0.40;;;16.30;99.90;;;;;;5053292;28;20463;-77
2022/06/20 07:11:21;;;;;;;0.50;0.30;;;16.40;99.90;;;;;;5053631;28;20489;-77
2022/06/20 07:13:57;;;;;;;0.50;0.30;;;16.50;99.90;;;;;;5053876;28;20951;-77
2022/06/20 07:16:31;;;;;;;0.50;0.40;;;16.60;99.90;;;;;;5054738;28;20532;-77
2022/06/20 07:18:59;;;;;;;0.50;0.40;;;16.70;99.90;;;;;;5054648;28;20463;-79
2022/06/20 07:21:30;;;;;;;0.50;0.30;;;17.00;99.90;;;;;;5054896;28;20444;-78
2022/06/20 07:24:02;;;;;;;0.50;0.40;;;17.10;99.90;;;;;;5054293;28;20980;-79
2022/06/20 07:26:35;;;;;;;0.50;0.30;;;17.50;99.90;;;;;;5054282;28;20524;-79
2022/06/20 07:29:06;;;;;;;0.50;0.40;;;18.20;99.90;;;;;;5053985;28;20488;-78
2022/06/20 07:31:39;;;;;;;0.50;0.30;;;18.70;99.90;;;;;;5056513;28;20540;-79
2022/06/20 07:34:11;;;;;;;0.50;0.40;;;19.30;99.90;;;;;;5056771;28;20437;-79
2022/06/20 07:36:43;;;;;;;0.50;0.40;;;20.30;99.90;;;;;;5057452;28;20548;-79
2022/06/20 07:39:20;;;;;;;0.50;0.30;;;20.90;99.90;;;;;;5055844;28;20492;-79
2022/06/20 07:41:52;;;;;;;0.50;0.30;;;22.40;99.90;;;;;;5057631;28;20460;-78
2022/06/20 07:44:24;;;;;;;0.50;0.30;;;23.20;99.90;;;;;;5057070;28;20449;-78
2022/06/20 07:46:56;;;;;;;0.50;0.40;;;22.90;99.90;;;;;;5055482;28;20469;-79
2022/06/20 07:49:30;;;;;;;0.67;0.57;;;22.20;99.90;;;;;;5052354;28;20469;-78
2022/06/20 07:52:02;;;;;;;0.50;0.30;;;22.00;99.90;;;;;;5052775;28;20472;-79
2022/06/20 07:54:35;;;;;;;0.50;0.30;;;22.90;99.90;;;;;;5052761;28;20432;-79
2022/06/20 07:57:06;;;;;;;0.60;0.57;;;24.00;99.90;;;;;;5052517;28;20535;-78
2022/06/20 07:59:37;;;;;;;0.50;0.30;;;24.20;99.90;;;;;;5051968;28;20977;-79
2022/06/20 08:02:08;;;;;;;0.50;0.30;;;25.20;99.90;;;;;;5054225;28;20532;-79
2022/06/20 08:04:37;;;;;;;0.50;0.30;;;26.70;99.90;;;;;;5052706;28;20866;-78
2022/06/20 08:07:09;;;;;;;6.00;1.70;;;27.80;95.00;;;;;;5053017;28;20528;-75
2022/06/20 08:09:43;;;;;;;0.50;0.30;;;28.50;85.00;;;;;;5052920;28;20481;-77
2022/06/20 08:12:19;;;;;;;0.50;0.30;;;28.20;81.70;;;;;;5052456;28;20869;-78
2022/06/20 08:14:51;;;;;;;0.50;0.30;;;27.50;82.60;;;;;;5052233;28;20843;-77
2022/06/20 08:17:19;;;;;;;0.50;0.40;;;26.40;85.10;;;;;;5051725;28;20532;-75
2022/06/20 08:19:46;;;;;;;0.63;0.63;;;25.80;88.60;;;;;;5051897;28;20898;-79
2022/06/20 08:22:17;;;;;;;0.50;0.40;;;24.80;86.80;;;;;;5051736;28;20910;-76
2022/06/20 08:24:49;;;;;;;0.50;0.30;;;23.90;93.60;;;;;;5051911;28;20445;-77
2022/06/20 08:27:23;;;;;;;0.50;0.40;;;25.00;93.80;;;;;;5051763;28;20859;-76
2022/06/20 08:29:55;;;;;;;0.50;0.30;;;26.50;89.70;;;;;;5051491;28;20477;-77
2022/06/20 08:32:31;;;;;;;0.50;0.30;;;26.50;82.00;;;;;;5051998;28;20683;-76
2022/06/20 08:35:08;;;;;;;0.50;0.40;;;25.80;79.70;;;;;;5050775;28;20512;-77
2022/06/20 08:37:39;;;;;;;0.50;0.30;;;25.30;83.10;;;;;;5050729;28;20511;-76
2022/06/20 08:40:29;;;;;;;0.50;0.30;;;26.20;84.20;;;;;;5050777;28;20457;-77
2022/06/20 08:43:30;;;;;;;0.50;0.30;;;28.10;77.90;;;;;;5051387;28;20443;-77
2022/06/20 08:46:24;;;;;;;0.50;0.30;;;29.90;71.80;;;;;;5012219;28;20589;-77
2022/06/20 08:49:35;;;;;;;0.70;0.40;;;30.30;63.10;;;;;;5048632;28;20561;-77
2022/06/20 08:52:37;;;;;;;0.50;0.30;;;29.10;61.90;;;;;;5050886;28;20516;-77
2022/06/20 08:55:35;;;;;;;0.50;0.30;;;27.70;68.30;;;;;;5041853;28;20447;-77
2022/06/20 08:58:13;;;;;;;0.50;0.30;;;26.50;67.80;;;;;;5051222;28;20513;-77
2022/06/20 09:00:46;;;;;;;0.50;0.30;;;25.60;69.70;;;;;;5050420;28;20489;-78
2022/06/20 09:03:33;;;;;;;0.50;0.30;;;24.60;75.40;;;;;;5050928;28;20437;-75
2022/06/20 09:06:17;;;;;;;0.50;0.30;;;24.00;77.40;;;;;;5050596;28;20507;-76
2022/06/20 09:09:15;;;;;;;0.50;0.30;;;23.30;78.80;;;;;;5050362;28;20564;-77
2022/06/20 09:11:54;;;;;;;0.50;0.30;;;23.40;80.40;;;;;;5050959;28;20528;-76
2022/06/20 09:14:40;;;;;;;0.50;0.30;;;23.30;84.00;;;;;;5050487;28;20503;-78
2022/06/20 09:17:18;;;;;;;0.50;0.30;;;23.30;84.80;;;;;;5050862;28;20441;-76
2022/06/20 09:19:57;;;;;;;0.50;0.37;;;23.80;88.90;;;;;;5050461;28;20590;-77
2022/06/20 09:22:50;;;;;;;0.50;0.30;;;24.00;87.20;;;;;;5050769;28;20441;-77
2022/06/20 09:25:31;;;;;;;0.50;0.30;;;23.90;85.10;;;;;;5050578;28;20514;-76
2022/06/20 09:28:12;;;;;;;0.50;0.30;;;23.70;87.20;;;;;;5050656;28;20443;-77
2022/06/20 09:30:48;;;;;;;0.50;0.30;;;25.10;84.00;;;;;;5050955;28;20457;-77
2022/06/20 09:33:47;;;;;;;0.50;0.30;;;27.40;79.80;;;;;;5050345;28;20528;-77
2022/06/20 09:36:50;;;;;;;0.50;0.40;;;28.20;69.40;;;;;;5049900;28;20541;-75
2022/06/20 09:39:34;;;;;;;0.50;0.30;;;27.70;64.50;;;;;;5050530;28;20420;-76
2022/06/20 09:42:11;;;;;;;0.50;0.30;;;26.80;64.70;;;;;;5050677;28;20428;-76
2022/06/20 09:44:48;;;;;;;0.50;0.30;;;25.80;66.30;;;;;;5050613;28;20532;-77
2022/06/20 09:47:29;;;;;;;0.50;0.30;;;26.00;74.30;;;;;;5050224;28;20531;-77
2022/06/20 09:50:06;;;;;;;0.50;0.30;;;27.70;64.70;;;;;;5053551;28;20520;-77
2022/06/20 09:52:38;;;;;;;0.50;0.30;;;28.90;63.30;;;;;;5054333;28;20445;-77
2022/06/20 09:55:15;;;;;;;0.50;0.30;;;29.00;60.80;;;;;;5054203;28;20437;-77
2022/06/20 09:57:51;;;;;;;0.50;0.30;;;29.60;58.50;;;;;;5054153;28;20751;-76
2022/06/20 10:00:21;;;;;;;0.70;0.53;;;29.20;58.00;;;;;;5054444;28;20868;-77
2022/06/20 10:02:58;;;;;;;0.50;0.30;;;27.80;59.60;;;;;;5054458;28;20445;-75
2022/06/20 10:05:39;;;;;;;0.60;0.50;;;27.30;61.00;;;;;;5054368;28;20516;-77
2022/06/20 10:08:15;;;;;;;0.60;0.37;;;26.50;62.50;;;;;;5053852;28;20444;-77
2022/06/20 10:10:48;;;;;;;0.80;0.80;;;26.50;62.60;;;;;;5054237;28;20463;-78
2022/06/20 10:13:19;;;;;;;0.50;0.30;;;26.60;63.70;;;;;;5053918;28;20528;-77
2022/06/20 10:15:51;;;;;;;0.50;0.30;;;26.20;64.80;;;;;;5054283;28;20429;-77
2022/06/20 10:18:33;;;;;;;0.50;0.30;;;25.70;64.50;;;;;;5053359;28;20433;-77
2022/06/20 10:21:07;;;;;;;1.17;1.07;;;25.70;65.70;;;;;;5053838;28;20555;-76
2022/06/20 10:24:02;;;;;;;0.50;0.40;;;25.30;65.90;;;;;;5053887;28;20500;-76
2022/06/20 10:26:54;;;;;;;0.50;0.30;;;25.70;68.10;;;;;;5053844;28;20468;-77
2022/06/20 10:29:23;;;;;;;0.50;0.30;;;27.50;67.90;;;;;;5051550;28;20928;-77
2022/06/20 10:32:03;;;;;;;0.50;0.30;;;29.30;63.60;;;;;;5054188;28;20893;-78
2022/06/20 10:34:42;;;;;;;0.50;0.30;;;31.30;59.50;;;;;;5053273;28;20814;-76
2022/06/20 10:37:22;;;;;;;0.50;0.30;;;32.20;54.00;;;;;;5053824;28;20532;-78
2022/06/20 10:39:57;;;;;;;0.50;0.30;;;31.00;53.40;;;;;;5053373;28;20468;-76
2022/06/20 10:42:33;;;;;;;0.50;0.30;;;30.10;53.80;;;;;;5054340;28;20769;-76
2022/06/20 10:45:22;;;;;;;0.50;0.30;;;29.10;56.50;;;;;;5053583;28;20452;-77
2022/06/20 10:48:03;;;;;;;0.60;0.57;;;28.30;56.50;;;;;;5053441;28;20502;-78
2022/06/20 10:50:39;;;;;;;0.60;0.40;;;27.50;58.20;;;;;;5053136;28;20553;-78
2022/06/20 10:53:18;;;;;;;0.50;0.30;;;26.80;59.70;;;;;;5053909;28;20854;-78
2022/06/20 10:55:54;;;;;;;0.50;0.50;;;26.90;60.80;;;;;;5053065;28;20421;-77
2022/06/20 10:58:54;;;;;;;0.50;0.30;;;28.30;57.10;;;;;;5052922;28;20536;-78
2022/06/20 11:01:27;;;;;;;0.50;0.30;;;29.30;56.50;;;;;;5030514;28;20457;-76
2022/06/20 11:04:35;;;;;;;0.50;0.30;;;29.50;55.10;;;;;;5053402;28;20539;-77
2022/06/20 11:07:18;;;;;;;0.50;0.40;;;30.40;53.40;;;;;;5053283;28;20528;-77
2022/06/20 11:09:52;;;;;;;0.50;0.30;;;30.50;54.00;;;;;;5053305;28;20580;-77
2022/06/20 11:12:27;;;;;;;0.50;0.40;;;29.50;53.80;;;;;;5053119;28;20972;-77
2022/06/20 11:15:03;;;;;;;0.50;0.30;;;28.90;55.40;;;;;;5053035;28;20429;-77
2022/06/20 11:17:36;;;;;;;0.50;0.30;;;28.50;56.50;;;;;;5052705;28;20922;-77
2022/06/20 11:20:13;;;;;;;0.50;0.30;;;27.90;55.80;;;;;;5052937;28;20461;-77
2022/06/20 11:22:44;;;;;;;0.50;0.30;;;27.00;57.50;;;;;;5052970;28;20516;-78
2022/06/20 11:25:23;;;;;;;0.50;0.30;;;26.40;58.90;;;;;;5053203;28;20528;-77
2022/06/20 11:28:17;;;;;;;0.50;0.30;;;25.80;60.10;;;;;;5051770;28;20524;-75
2022/06/20 11:30:55;;;;;;;0.50;0.30;;;25.80;64.10;;;;;;5052488;28;20532;-77
2022/06/20 11:36:25;;;;;;;0.50;0.30;;;28.40;61.30;;;;;;5051983;28;20413;-77
2022/06/20 11:39:05;;;;;;;0.50;0.40;;;29.70;57.40;;;;;;5052222;28;20842;-77
2022/06/20 11:41:37;;;;;;;1.07;0.63;;;30.60;54.20;;;;;;5052273;28;20429;-77
2022/06/20 11:44:40;;;;;;;0.50;0.40;;;30.70;52.90;;;;;;5052587;28;20746;-74
2022/06/20 11:47:48;;;;;;;0.50;0.30;;;31.30;52.90;;;;;;5030017;28;20447;-77
2022/06/20 11:50:39;;;;;;;0.50;0.30;;;32.00;50.50;;;;;;5031852;28;20489;-77
2022/06/20 11:53:35;;;;;;;0.50;0.30;;;31.80;51.80;;;;;;5052283;28;20516;-78
2022/06/20 11:56:16;;;;;;;0.50;0.30;;;31.20;53.00;;;;;;5051228;28;20860;-76
2022/06/20 11:59:02;;;;;;;0.50;0.30;;;30.40;53.20;;;;;;5051236;28;20433;-77
2022/06/20 12:01:36;;;;;;;0.50;0.33;;;30.40;52.70;;;;;;5051909;28;20429;-78
2022/06/20 12:04:13;;;;;;;0.50;0.30;;;31.20;51.60;;;;;;5051840;28;20456;-78
2022/06/20 12:06:48;;;;;;;0.50;0.30;;;31.00;53.50;;;;;;5052021;28;20441;-77
2022/06/20 12:09:24;;;;;;;0.50;0.30;;;30.80;52.00;;;;;;5051825;28;20461;-77
2022/06/20 12:12:18;;;;;;;0.50;0.30;;;30.40;51.20;;;;;;5050888;28;20523;-77
2022/06/20 12:14:56;;;;;;;0.60;0.40;;;30.10;52.00;;;;;;5051610;28;21009;-77
2022/06/20 12:17:31;;;;;;;0.50;0.30;;;29.50;52.50;;;;;;5051812;28;20520;-77
2022/06/20 12:23:21;;;;;;;0.50;0.30;;;27.90;54.40;;;;;;5127282;22;20540;-83
2022/06/20 12:25:53;;;;;;;0.50;0.30;;;28.10;55.40;;;;;;5084486;28;20439;-84
2022/06/20 12:28:26;;;;;;;0.60;0.53;;;28.30;56.40;;;;;;5097233;28;20467;-83
2022/06/20 12:30:57;;;;;;;0.50;0.30;;;28.20;56.00;;;;;;5097191;28;20463;-84
2022/06/20 12:33:25;;;;;;;1.07;0.97;;;29.00;55.10;;;;;;5096540;28;20998;-82
2022/06/20 12:35:55;;;;;;;0.60;0.53;;;30.10;54.20;;;;;;5096593;28;20510;-84
2022/06/20 12:38:28;;;;;;;0.50;0.30;;;30.70;52.50;;;;;;5096360;28;20445;-86
2022/06/20 12:40:58;;;;;;;0.50;0.30;;;29.90;51.80;;;;;;5097179;28;20425;-86
2022/06/20 12:43:34;;;;;;;0.50;0.40;;;29.00;52.40;;;;;;5096098;28;20562;-86
2022/06/20 12:46:40;;;;;;;0.60;0.50;;;28.20;54.20;;;;;;5098703;28;20439;-86
2022/06/20 12:49:24;;;;;;;0.50;0.33;;;27.30;55.80;;;;;;5013633;28;21072;-85
2022/06/20 12:51:58;;;;;;;0.50;0.40;;;26.40;56.00;;;;;;5095715;28;20466;-85
2022/06/20 12:54:46;;;;;;;0.50;0.30;;;25.60;57.30;;;;;;5095816;28;20535;-81
2022/06/20 12:57:36;;;;;;;0.50;0.30;;;26.00;58.40;;;;;;5096931;28;20526;-86
2022/06/20 13:00:34;;;;;;;0.80;0.80;;;26.30;57.20;;;;;;5096181;28;20503;-86
2022/06/20 13:03:32;;;;;;;0.50;0.30;;;27.40;57.60;;;;;;5091949;28;20579;-85
2022/06/20 13:06:23;;;;;;;0.50;0.30;;;28.00;56.70;;;;;;5096382;28;20439;-85
2022/06/20 13:09:08;;;;;;;0.50;0.30;;;28.80;54.80;;;;;;5095441;28;21034;-85
2022/06/20 13:11:46;;;;;;;0.50;0.30;;;29.40;54.20;;;;;;5097100;28;20443;-82
2022/06/20 13:14:42;;;;;;;0.50;0.30;;;30.30;53.20;;;;;;5097912;28;20432;-86
2022/06/20 13:17:26;;;;;;;0.87;0.87;;;30.40;52.00;;;;;;5096714;28;20462;-87
2022/06/20 13:20:19;;;;;;;0.50;0.30;;;30.80;51.20;;;;;;5096030;28;20435;-85
2022/06/20 13:22:54;;;;;;;0.60;0.50;;;30.60;50.20;;;;;;5097491;28;20552;-86
2022/06/20 13:25:33;;;;;;;0.50;0.30;;;30.20;51.50;;;;;;5100593;28;20521;-85
2022/06/20 13:28:11;;;;;;;0.50;0.30;;;29.40;52.00;;;;;;5099962;28;20526;-85
2022/06/20 13:30:58;;;;;;;0.50;0.30;;;28.40;53.30;;;;;;5100079;28;21064;-86
2022/06/20 13:33:37;;;;;;;0.50;0.30;;;27.80;53.90;;;;;;5101006;28;20455;-84
2022/06/20 13:36:17;;;;;;;0.50;0.30;;;27.10;54.80;;;;;;5100426;28;20463;-84